Time;durP1;ratioP1;P1;durP2;ratioP2;P2;SDS_P1;SDS_P2;PMS_P1;PMS_P2;Temp;Humidity;BMP_temperature;BMP_pressure;BME280_temperature;BME280_humidity;BME280_pressure;Samples;Min_cycle;Max_cycle;Signal;HPM_P1;HPM_P2
2022/08/08 00:01:53;;;;;;;6.97;4.82;;;;;;;;;;5003408;28;99085;-76
2022/08/08 00:04:40;;;;;;;8.57;4.53;;;;;;;;;;5010426;28;95502;-75
2022/08/08 00:07:18;;;;;;;7.65;5.05;;;;;;;;;;4982603;28;96863;-75
2022/08/08 00:09:52;;;;;;;6.47;4.60;;;;;;;;;;4993496;28;97908;-75
2022/08/08 00:12:21;;;;;;;13.60;5.00;;;;;;;;;;5011493;28;95462;-76
2022/08/08 00:15:00;;;;;;;7.88;5.45;;;;;;;;;;4992983;28;97365;-75
2022/08/08 00:17:37;;;;;;;8.02;4.97;;;;;;;;;;5008932;28;95785;-77
2022/08/08 00:20:28;;;;;;;7.93;4.97;;;;;;;;;;5004190;28;98699;-74
2022/08/08 00:22:57;;;;;;;9.63;5.13;;;;;;;;;;4989106;28;96175;-74
2022/08/08 00:25:27;;;;;;;11.68;5.97;;;;;;;;;;4992778;28;95570;-74
2022/08/08 00:28:14;;;;;;;10.05;5.93;;;;;;;;;;5009438;28;96844;-75
2022/08/08 00:31:02;;;;;;;11.88;5.70;;;;;;;;;;4975926;28;98860;-78
2022/08/08 00:36:56;;;;;;;7.22;4.78;;;;;;;;;;4987420;28;98282;-73
2022/08/08 00:39:51;;;;;;;10.43;5.35;;;;;;;;;;4992705;28;95520;-73
2022/08/08 00:42:46;;;;;;;9.15;5.30;;;;;;;;;;4977245;28;97581;-74
2022/08/08 00:45:21;;;;;;;9.10;5.40;;;;;;;;;;4999846;28;97234;-73
2022/08/08 00:48:16;;;;;;;10.57;5.53;;;;;;;;;;4998974;28;95717;-74
2022/08/08 00:51:08;;;;;;;7.43;5.10;;;;;;;;;;5006205;28;96778;-77
2022/08/08 00:53:41;;;;;;;8.77;5.20;;;;;;;;;;5004149;28;97419;-78
2022/08/08 00:56:37;;;;;;;8.68;5.35;;;;;;;;;;4996743;28;95320;-77
2022/08/08 00:59:09;;;;;;;12.77;4.80;;;;;;;;;;5015381;28;96786;-76
2022/08/08 01:01:54;;;;;;;8.48;5.47;;;;;;;;;;5007058;28;95549;-74
2022/08/08 01:04:45;;;;;;;7.60;5.13;;;;;;;;;;4991852;28;96662;-74
2022/08/08 01:07:16;;;;;;;7.60;5.00;;;;;;;;;;4996078;28;97408;-73
2022/08/08 01:09:55;;;;;;;11.27;5.38;;;;;;;;;;4992329;28;95482;-75
2022/08/08 01:12:34;;;;;;;7.80;5.10;;;;;;;;;;5004276;28;96780;-75
2022/08/08 01:15:07;;;;;;;9.40;4.93;;;;;;;;;;5011996;28;97385;-74
2022/08/08 01:17:40;;;;;;;14.77;5.15;;;;;;;;;;5010005;28;95524;-76
2022/08/08 01:20:27;;;;;;;8.52;5.07;;;;;;;;;;5012020;28;96752;-77
2022/08/08 01:22:56;;;;;;;10.60;5.07;;;;;;;;;;4996626;28;97370;-77
2022/08/08 01:25:41;;;;;;;13.90;4.95;;;;;;;;;;4996951;28;97143;-78
2022/08/08 01:28:14;;;;;;;9.50;4.97;;;;;;;;;;4991780;28;97477;-77
2022/08/08 01:30:55;;;;;;;17.33;5.55;;;;;;;;;;4992872;28;95416;-74
2022/08/08 01:33:46;;;;;;;10.05;5.63;;;;;;;;;;4978400;28;96802;-73
2022/08/08 01:36:27;;;;;;;13.80;5.53;;;;;;;;;;5002556;28;96864;-73
2022/08/08 01:39:14;;;;;;;8.65;5.72;;;;;;;;;;5008064;28;95485;-73
2022/08/08 01:41:52;;;;;;;9.10;6.13;;;;;;;;;;4992642;28;97104;-74
2022/08/08 01:44:41;;;;;;;8.77;6.00;;;;;;;;;;4974370;28;97826;-74
2022/08/08 01:47:35;;;;;;;9.15;5.75;;;;;;;;;;5010561;28;96142;-74
2022/08/08 01:50:28;;;;;;;11.05;5.85;;;;;;;;;;4998444;28;98799;-79
2022/08/08 01:53:08;;;;;;;13.20;6.28;;;;;;;;;;4993886;28;97343;-77
2022/08/08 01:55:54;;;;;;;8.63;5.65;;;;;;;;;;5003312;28;98021;-77
2022/08/08 01:58:41;;;;;;;11.38;6.35;;;;;;;;;;5006649;28;99110;-76
2022/08/08 02:01:13;;;;;;;9.48;5.95;;;;;;;;;;5001520;28;95300;-74
2022/08/08 02:03:45;;;;;;;11.20;5.97;;;;;;;;;;4998422;28;97275;-73
2022/08/08 02:06:32;;;;;;;8.18;5.50;;;;;;;;;;4998208;28;97363;-74
2022/08/08 02:09:17;;;;;;;9.60;5.00;;;;;;;;;;5007642;28;95251;-73
2022/08/08 02:11:45;;;;;;;7.93;5.53;;;;;;;;;;5002253;28;97080;-74
2022/08/08 02:14:34;;;;;;;12.07;5.25;;;;;;;;;;4995021;28;95667;-74
2022/08/08 02:17:25;;;;;;;8.23;4.80;;;;;;;;;;5011156;28;98204;-73
2022/08/08 02:20:13;;;;;;;7.93;4.93;;;;;;;;;;5010802;28;97292;-74
2022/08/08 02:22:59;;;;;;;11.30;5.07;;;;;;;;;;4993769;28;95612;-74
2022/08/08 02:25:44;;;;;;;7.15;5.10;;;;;;;;;;5011012;28;97107;-78
2022/08/08 02:28:20;;;;;;;8.18;5.10;;;;;;;;;;5005392;28;97347;-78
2022/08/08 02:31:19;;;;;;;10.68;5.30;;;;;;;;;;5010980;28;95634;-79
2022/08/08 02:34:09;;;;;;;10.82;5.28;;;;;;;;;;5002266;28;98948;-78
2022/08/08 02:36:52;;;;;;;8.63;4.93;;;;;;;;;;5012340;28;97835;-76
2022/08/08 02:39:22;;;;;;;9.65;5.43;;;;;;;;;;5011130;28;96727;-80
2022/08/08 02:42:28;;;;;;;8.63;4.63;;;;;;;;;;4995896;28;99337;-78
2022/08/08 02:45:07;;;;;;;8.80;5.45;;;;;;;;;;4990960;28;95265;-78
2022/08/08 02:48:02;;;;;;;9.93;5.68;;;;;;;;;;4990483;28;96825;-77
2022/08/08 02:50:47;;;;;;;13.07;5.78;;;;;;;;;;4989610;28;97784;-78
2022/08/08 02:53:30;;;;;;;10.20;4.78;;;;;;;;;;4994519;28;95510;-78
2022/08/08 02:56:16;;;;;;;10.60;5.60;;;;;;;;;;5007474;28;97078;-77
2022/08/08 02:59:01;;;;;;;10.95;5.78;;;;;;;;;;4993235;28;97319;-77
2022/08/08 03:02:01;;;;;;;8.00;5.22;;;;;;;;;;4990519;28;97051;-76
2022/08/08 03:04:39;;;;;;;8.60;5.22;;;;;;;;;;4997570;28;97590;-80
2022/08/08 03:07:44;;;;;;;11.35;4.78;;;;;;;;;;4994524;28;95455;-79
2022/08/08 03:10:36;;;;;;;7.85;5.07;;;;;;;;;;4990161;28;97163;-78
2022/08/08 03:13:16;;;;;;;9.63;5.00;;;;;;;;;;4974128;28;97472;-78
2022/08/08 03:16:17;;;;;;;6.20;4.47;;;;;;;;;;4975012;28;95485;-79
2022/08/08 03:19:12;;;;;;;12.65;4.40;;;;;;;;;;4989988;28;96819;-79
2022/08/08 03:21:43;;;;;;;7.15;4.45;;;;;;;;;;4973221;28;97326;-79
2022/08/08 03:24:25;;;;;;;6.68;4.53;;;;;;;;;;4994953;28;95981;-79
2022/08/08 03:27:20;;;;;;;16.10;4.88;;;;;;;;;;5009497;28;96764;-79
2022/08/08 03:29:56;;;;;;;7.53;4.28;;;;;;;;;;4990810;28;95440;-79
2022/08/08 03:35:12;;;;;;;9.10;5.10;;;;;;;;;;4990945;28;97427;-76
2022/08/08 03:37:41;;;;;;;7.78;5.15;;;;;;;;;;4973008;28;95708;-77
2022/08/08 03:40:27;;;;;;;9.07;5.40;;;;;;;;;;4974647;28;98725;-78
2022/08/08 03:42:58;;;;;;;8.80;5.38;;;;;;;;;;4989632;28;97459;-78
2022/08/08 03:45:45;;;;;;;10.38;5.38;;;;;;;;;;4989642;28;95528;-79
2022/08/08 03:48:31;;;;;;;13.55;5.63;;;;;;;;;;4992915;28;98651;-79
2022/08/08 03:51:17;;;;;;;8.52;5.25;;;;;;;;;;5009637;28;96939;-77
2022/08/08 03:54:04;;;;;;;11.23;5.70;;;;;;;;;;5002247;28;98180;-79
2022/08/08 03:56:33;;;;;;;10.98;6.22;;;;;;;;;;4989171;28;97697;-75
2022/08/08 03:59:00;;;;;;;10.65;6.30;;;;;;;;;;4989958;28;95625;-75
2022/08/08 04:01:34;;;;;;;8.95;5.75;;;;;;;;;;4989420;28;97056;-75
2022/08/08 04:04:21;;;;;;;7.72;5.15;;;;;;;;;;5002349;28;99476;-74
2022/08/08 04:06:57;;;;;;;9.10;5.78;;;;;;;;;;4989063;28;95728;-73
2022/08/08 04:09:26;;;;;;;8.63;6.18;;;;;;;;;;4989537;28;96765;-73
2022/08/08 04:11:58;;;;;;;10.55;6.05;;;;;;;;;;4994920;28;97453;-75
2022/08/08 04:14:26;;;;;;;10.40;6.00;;;;;;;;;;4992584;28;96812;-74
2022/08/08 04:17:01;;;;;;;8.63;5.50;;;;;;;;;;4961340;28;97172;-76
2022/08/08 04:19:29;;;;;;;10.45;5.65;;;;;;;;;;4993308;28;95517;-76
2022/08/08 04:22:02;;;;;;;15.55;6.15;;;;;;;;;;4992983;28;96803;-78
2022/08/08 04:24:28;;;;;;;10.13;5.75;;;;;;;;;;5005987;28;97336;-76
2022/08/08 04:26:57;;;;;;;10.10;5.95;;;;;;;;;;4993439;28;95471;-73
2022/08/08 04:29:25;;;;;;;11.50;6.45;;;;;;;;;;4992642;28;96859;-79
2022/08/08 04:31:52;;;;;;;10.18;6.25;;;;;;;;;;4992705;28;96927;-79
2022/08/08 04:34:25;;;;;;;8.88;6.13;;;;;;;;;;4994073;28;97765;-74
2022/08/08 04:36:57;;;;;;;9.63;5.00;;;;;;;;;;4991520;28;97425;-74
2022/08/08 04:39:23;;;;;;;7.60;4.90;;;;;;;;;;4992638;28;95469;-73
2022/08/08 04:42:10;;;;;;;8.55;4.70;;;;;;;;;;4992668;28;98539;-74
2022/08/08 04:44:41;;;;;;;7.18;4.70;;;;;;;;;;5007319;28;97310;-74
2022/08/08 19:48:30;;;;;;;7.53;2.38;;;;;;;;;;5120140;27;96097;-74
2022/08/08 19:50:57;;;;;;;5.45;1.88;;;;;;;;;;5104826;27;97531;-74
2022/08/08 19:53:24;;;;;;;5.70;2.20;;;;;;;;;;5104250;27;96718;-74
2022/08/08 19:56:11;;;;;;;4.10;1.70;;;;;;;;;;5087850;27;97988;-73
2022/08/08 19:58:38;;;;;;;5.50;2.00;;;;;;;;;;5106151;27;97328;-74
2022/08/08 20:01:07;;;;;;;5.15;2.00;;;;;;;;;;5106967;27;95192;-74
2022/08/08 20:03:44;;;;;;;5.30;1.92;;;;;;;;;;5106350;27;96872;-74
2022/08/08 20:06:28;;;;;;;5.30;2.10;;;;;;;;;;5106668;27;97239;-74
2022/08/08 20:08:55;;;;;;;4.30;2.00;;;;;;;;;;5108245;27;95308;-74
2022/08/08 20:11:22;;;;;;;3.88;2.17;;;;;;;;;;5105134;27;97503;-74
2022/08/08 20:13:49;;;;;;;4.80;2.03;;;;;;;;;;5106371;27;95682;-74
2022/08/08 20:16:36;;;;;;;8.65;2.97;;;;;;;;;;5106646;27;98499;-74
2022/08/08 20:19:06;;;;;;;6.15;2.92;;;;;;;;;;5104902;27;97597;-74
2022/08/08 20:21:34;;;;;;;7.07;2.63;;;;;;;;;;5106587;27;95999;-74
2022/08/08 20:24:03;;;;;;;5.57;2.40;;;;;;;;;;5101003;27;97160;-74
2022/08/08 20:26:30;;;;;;;7.00;2.58;;;;;;;;;;5087229;27;97595;-77
2022/08/08 20:28:59;;;;;;;4.78;2.15;;;;;;;;;;5104957;27;95750;-73
2022/08/08 20:31:25;;;;;;;7.00;2.40;;;;;;;;;;5108274;27;96642;-73
2022/08/08 20:34:14;;;;;;;7.25;2.38;;;;;;;;;;5106356;27;95352;-74
2022/08/08 20:36:57;;;;;;;5.80;2.33;;;;;;;;;;5106153;27;96907;-73
2022/08/08 20:39:30;;;;;;;4.68;2.40;;;;;;;;;;5102281;27;97792;-74
2022/08/08 20:42:06;;;;;;;3.45;2.25;;;;;;;;;;5106432;27;95228;-73
2022/08/08 20:44:34;;;;;;;5.03;2.60;;;;;;;;;;5088166;27;96684;-74
2022/08/08 20:47:03;;;;;;;5.70;2.78;;;;;;;;;;5102698;27;97633;-73
2022/08/08 20:49:29;;;;;;;8.45;3.50;;;;;;;;;;5105844;27;95394;-73
2022/08/08 20:52:05;;;;;;;5.43;2.80;;;;;;;;;;5106032;27;96968;-74
2022/08/08 20:54:32;;;;;;;6.80;2.60;;;;;;;;;;5109429;27;97405;-75
2022/08/08 20:57:00;;;;;;;10.20;2.67;;;;;;;;;;5104692;27;97094;-74
2022/08/08 20:59:43;;;;;;;5.00;2.58;;;;;;;;;;5092021;27;97321;-74
2022/08/08 21:02:15;;;;;;;6.75;2.80;;;;;;;;;;5092204;27;95440;-74
2022/08/08 21:04:55;;;;;;;5.10;2.60;;;;;;;;;;5090719;27;97112;-74
2022/08/08 21:07:27;;;;;;;7.53;2.50;;;;;;;;;;5090232;27;97328;-74
2022/08/08 21:10:13;;;;;;;6.43;2.95;;;;;;;;;;5073818;27;95884;-76
2022/08/08 21:12:41;;;;;;;7.88;2.80;;;;;;;;;;5092077;27;96774;-74
2022/08/08 21:15:11;;;;;;;6.40;3.10;;;;;;;;;;5091486;27;97486;-76
2022/08/08 21:17:57;;;;;;;6.28;2.67;;;;;;;;;;5093461;27;96158;-74
2022/08/08 21:20:24;;;;;;;6.20;2.50;;;;;;;;;;5091289;27;97600;-76
2022/08/08 21:22:59;;;;;;;5.00;2.75;;;;;;;;;;5091202;27;95830;-74
2022/08/08 21:25:27;;;;;;;6.78;2.63;;;;;;;;;;5090793;27;97039;-75
2022/08/08 21:27:58;;;;;;;4.30;2.40;;;;;;;;;;5086577;27;97767;-76
2022/08/08 21:30:41;;;;;;;6.82;2.88;;;;;;;;;;5084505;27;95347;-74
2022/08/08 21:33:10;;;;;;;5.68;2.72;;;;;;;;;;5087972;27;97061;-74
2022/08/08 21:35:37;;;;;;;5.43;2.83;;;;;;;;;;5089608;27;97539;-74
2022/08/08 21:38:23;;;;;;;6.05;3.22;;;;;;;;;;5089741;27;95962;-74
2022/08/08 21:40:52;;;;;;;6.75;2.90;;;;;;;;;;5093795;27;97268;-74
2022/08/08 21:43:22;;;;;;;;;;;;;;;;;;5091562;27;95540;-74
2022/08/08 21:45:48;;;;;;;4.72;2.80;;;;;;;;;;5089545;27;126679;-74
2022/08/08 21:48:35;;;;;;;4.47;2.85;;;;;;;;;;5087692;27;99103;-74
2022/08/08 21:51:14;;;;;;;6.90;2.88;;;;;;;;;;5089996;27;96600;-77
2022/08/08 21:53:40;;;;;;;4.68;2.70;;;;;;;;;;5069101;27;96055;-73
2022/08/08 21:56:27;;;;;;;5.40;3.00;;;;;;;;;;5084069;27;98039;-73
2022/08/08 21:59:02;;;;;;;5.50;3.17;;;;;;;;;;5082297;27;95643;-73
2022/08/08 22:01:31;;;;;;;4.93;3.28;;;;;;;;;;5091814;27;97260;-73
2022/08/08 22:04:06;;;;;;;6.70;3.30;;;;;;;;;;5091881;27;95342;-73
2022/08/08 22:06:37;;;;;;;6.85;2.90;;;;;;;;;;5090277;27;98038;-74
2022/08/08 22:09:06;;;;;;;5.95;3.03;;;;;;;;;;5088977;27;96342;-73
2022/08/08 22:11:34;;;;;;;7.88;3.30;;;;;;;;;;5084400;27;96030;-74
2022/08/08 22:14:20;;;;;;;4.45;2.72;;;;;;;;;;5085266;27;97482;-74
2022/08/08 22:16:49;;;;;;;9.23;3.40;;;;;;;;;;5088608;27;97374;-74
2022/08/08 22:19:18;;;;;;;5.40;3.10;;;;;;;;;;5090927;27;96610;-74
2022/08/08 22:21:50;;;;;;;7.43;2.97;;;;;;;;;;5091782;27;96763;-74
2022/08/08 22:24:18;;;;;;;5.75;2.85;;;;;;;;;;5070978;27;97620;-74
2022/08/08 22:26:56;;;;;;;7.05;3.33;;;;;;;;;;5077761;27;96711;-74
2022/08/08 22:29:28;;;;;;;7.15;3.17;;;;;;;;;;5084852;27;97414;-74
2022/08/08 22:32:15;;;;;;;5.45;3.50;;;;;;;;;;5075472;27;95422;-74
2022/08/08 22:34:44;;;;;;;10.63;3.70;;;;;;;;;;5082924;27;96743;-74
2022/08/08 22:37:17;;;;;;;6.28;3.15;;;;;;;;;;5082761;27;97345;-74
2022/08/08 22:40:04;;;;;;;5.90;3.40;;;;;;;;;;5074121;27;96093;-74
2022/08/08 22:42:31;;;;;;;6.20;3.65;;;;;;;;;;5090798;27;97218;-74
2022/08/08 22:45:00;;;;;;;10.00;3.70;;;;;;;;;;5090471;27;98508;-74
2022/08/08 22:47:27;;;;;;;6.15;3.80;;;;;;;;;;5084938;27;95709;-74
2022/08/08 22:50:07;;;;;;;5.95;3.53;;;;;;;;;;5090109;27;97382;-74
2022/08/08 22:52:52;;;;;;;12.05;4.10;;;;;;;;;;5091010;27;95694;-74
2022/08/08 22:55:39;;;;;;;7.68;3.67;;;;;;;;;;5079339;27;98041;-74
2022/08/08 22:58:26;;;;;;;6.03;3.60;;;;;;;;;;5075742;27;99353;-74
2022/08/08 23:00:56;;;;;;;7.82;4.35;;;;;;;;;;5090111;27;95333;-74
2022/08/08 23:03:25;;;;;;;6.77;3.40;;;;;;;;;;5091099;27;96950;-74
2022/08/08 23:06:11;;;;;;;7.18;3.78;;;;;;;;;;5078784;27;99390;-74
2022/08/08 23:08:38;;;;;;;12.60;3.95;;;;;;;;;;5084135;27;95753;-74
2022/08/08 23:11:20;;;;;;;6.70;3.70;;;;;;;;;;5093806;27;96909;-74
2022/08/08 23:13:47;;;;;;;8.52;3.92;;;;;;;;;;5073409;27;95805;-74
2022/08/08 23:16:26;;;;;;;12.90;3.95;;;;;;;;;;5089608;27;97000;-74
2022/08/08 23:19:07;;;;;;;7.70;3.90;;;;;;;;;;5088941;27;97185;-74
2022/08/08 23:21:34;;;;;;;9.43;3.83;;;;;;;;;;5066742;27;95838;-74
2022/08/08 23:24:03;;;;;;;5.70;3.92;;;;;;;;;;5073851;27;97202;-75
2022/08/08 23:26:31;;;;;;;7.00;4.07;;;;;;;;;;5089279;27;96332;-74
2022/08/08 23:28:59;;;;;;;11.10;4.55;;;;;;;;;;5089120;27;95389;-73
2022/08/08 23:31:25;;;;;;;23.45;4.55;;;;;;;;;;5090705;27;96692;-74
2022/08/08 23:33:51;;;;;;;9.40;4.10;;;;;;;;;;5091497;27;97348;-74
2022/08/08 23:36:38;;;;;;;6.82;4.22;;;;;;;;;;5086031;27;98703;-74
2022/08/08 23:39:06;;;;;;;7.15;4.13;;;;;;;;;;5071257;27;97776;-74
2022/08/08 23:41:32;;;;;;;7.72;4.47;;;;;;;;;;5089834;27;95715;-74
2022/08/08 23:44:11;;;;;;;5.90;3.95;;;;;;;;;;5074068;27;96836;-74
2022/08/08 23:46:37;;;;;;;11.07;4.30;;;;;;;;;;5084398;27;98133;-74
2022/08/08 23:49:24;;;;;;;11.27;4.15;;;;;;;;;;5082298;27;97140;-74
2022/08/08 23:51:51;;;;;;;7.32;3.85;;;;;;;;;;5071949;27;96800;-74
2022/08/08 23:54:36;;;;;;;6.93;3.92;;;;;;;;;;5082747;27;97636;-74
2022/08/08 23:57:18;;;;;;;8.48;3.63;;;;;;;;;;5084456;27;95752;-74
2022/08/08 23:59:57;;;;;;;8.30;4.15;;;;;;;;;;5088097;27;97367;-74
